sensor_id;sensor_type;location;lat;lon;timestamp;temperature;humidity
29207;DHT22;16247;50.840;4.382;2022-12-29T00:00:51;12.50;99.90
29207;DHT22;16247;50.840;4.382;2022-12-29T00:03:17;12.30;99.90
29207;DHT22;16247;50.840;4.382;2022-12-29T00:05:43;12.50;99.90
29207;DHT22;16247;50.840;4.382;2022-12-29T00:08:10;12.30;99.90
29207;DHT22;16247;50.840;4.382;2022-12-29T00:10:36;12.30;99.90
29207;DHT22;16247;50.840;4.382;2022-12-29T00:13:03;12.50;99.90
29207;DHT22;16247;50.840;4.382;2022-12-29T00:15:47;12.50;99.90
29207;DHT22;16247;50.840;4.382;2022-12-29T00:18:13;12.30;99.90
29207;DHT22;16247;50.840;4.382;2022-12-29T00:20:39;12.60;99.90
29207;DHT22;16247;50.840;4.382;2022-12-29T00:23:24;12.60;99.90
29207;DHT22;16247;50.840;4.382;2022-12-29T00:26:15;12.50;99.90
29207;DHT22;16247;50.840;4.382;2022-12-29T00:29:00;12.70;99.90
29207;DHT22;16247;50.840;4.382;2022-12-29T00:31:44;12.60;99.90
29207;DHT22;16247;50.840;4.382;2022-12-29T00:34:29;12.70;99.90
29207;DHT22;16247;50.840;4.382;2022-12-29T00:37:13;12.70;99.90
29207;DHT22;16247;50.840;4.382;2022-12-29T00:39:38;12.70;99.90
29207;DHT22;16247;50.840;4.382;2022-12-29T00:42:25;12.60;99.90
29207;DHT22;16247;50.840;4.382;2022-12-29T00:45:09;12.50;99.90
29207;DHT22;16247;50.840;4.382;2022-12-29T00:47:36;12.50;99.90
29207;DHT22;16247;50.840;4.382;2022-12-29T00:50:01;12.50;99.90
29207;DHT22;16247;50.840;4.382;2022-12-29T00:52:27;12.50;99.90
29207;DHT22;16247;50.840;4.382;2022-12-29T00:54:53;12.50;99.90
29207;DHT22;16247;50.840;4.382;2022-12-29T00:57:18;12.60;99.90
29207;DHT22;16247;50.840;4.382;2022-12-29T00:59:45;12.60;99.90
29207;DHT22;16247;50.840;4.382;2022-12-29T01:02:11;12.70;99.90
29207;DHT22;16247;50.840;4.382;2022-12-29T01:04:37;12.60;99.90
29207;DHT22;16247;50.840;4.382;2022-12-29T01:07:04;12.60;99.90
29207;DHT22;16247;50.840;4.382;2022-12-29T01:09:31;12.50;99.90
29207;DHT22;16247;50.840;4.382;2022-12-29T01:12:15;12.60;99.90
29207;DHT22;16247;50.840;4.382;2022-12-29T01:14:41;12.60;99.90
29207;DHT22;16247;50.840;4.382;2022-12-29T01:17:07;12.40;99.90
29207;DHT22;16247;50.840;4.382;2022-12-29T01:19:32;12.40;99.90
29207;DHT22;16247;50.840;4.382;2022-12-29T01:21:58;12.30;99.90
29207;DHT22;16247;50.840;4.382;2022-12-29T01:24:25;12.20;99.90
29207;DHT22;16247;50.840;4.382;2022-12-29T01:26:52;12.10;99.90
29207;DHT22;16247;50.840;4.382;2022-12-29T01:29:20;12.20;99.90
29207;DHT22;16247;50.840;4.382;2022-12-29T01:31:46;12.20;99.90
29207;DHT22;16247;50.840;4.382;2022-12-29T01:34:12;12.00;99.90
29207;DHT22;16247;50.840;4.382;2022-12-29T01:36:41;11.80;99.90
29207;DHT22;16247;50.840;4.382;2022-12-29T01:39:07;11.90;99.90
29207;DHT22;16247;50.840;4.382;2022-12-29T01:41:32;11.90;99.90
29207;DHT22;16247;50.840;4.382;2022-12-29T01:44:00;11.90;99.90
29207;DHT22;16247;50.840;4.382;2022-12-29T01:46:34;11.90;99.90
29207;DHT22;16247;50.840;4.382;2022-12-29T01:49:13;11.80;99.90
29207;DHT22;16247;50.840;4.382;2022-12-29T01:51:50;11.70;99.90
29207;DHT22;16247;50.840;4.382;2022-12-29T01:54:26;11.70;99.90
29207;DHT22;16247;50.840;4.382;2022-12-29T01:56:53;11.70;99.90
29207;DHT22;16247;50.840;4.382;2022-12-29T01:59:31;11.90;99.90
29207;DHT22;16247;50.840;4.382;2022-12-29T02:01:58;11.70;99.90
29207;DHT22;16247;50.840;4.382;2022-12-29T02:04:27;11.80;99.90
29207;DHT22;16247;50.840;4.382;2022-12-29T02:07:05;11.80;99.90
29207;DHT22;16247;50.840;4.382;2022-12-29T02:09:32;11.80;99.90
29207;DHT22;16247;50.840;4.382;2022-12-29T02:11:58;11.70;99.90
29207;DHT22;16247;50.840;4.382;2022-12-29T02:14:25;11.70;99.90
29207;DHT22;16247;50.840;4.382;2022-12-29T02:17:21;11.60;99.90
29207;DHT22;16247;50.840;4.382;2022-12-29T02:20:52;11.50;99.90
29207;DHT22;16247;50.840;4.382;2022-12-29T02:31:24;11.00;99.90
29207;DHT22;16247;50.840;4.382;2022-12-29T02:39:43;11.00;99.90
29207;DHT22;16247;50.840;4.382;2022-12-29T02:45:17;10.70;99.90
29207;DHT22;16247;50.840;4.382;2022-12-29T02:50:24;10.80;99.90
29207;DHT22;16247;50.840;4.382;2022-12-29T02:52:59;10.90;99.90
29207;DHT22;16247;50.840;4.382;2022-12-29T02:55:25;10.90;99.90
29207;DHT22;16247;50.840;4.382;2022-12-29T02:58:24;10.80;99.90
29207;DHT22;16247;50.840;4.382;2022-12-29T03:03:56;10.80;99.90
29207;DHT22;16247;50.840;4.382;2022-12-29T03:06:56;10.80;99.90
29207;DHT22;16247;50.840;4.382;2022-12-29T03:12:30;10.60;99.90
29207;DHT22;16247;50.840;4.382;2022-12-29T03:18:29;10.60;99.90
29207;DHT22;16247;50.840;4.382;2022-12-29T03:21:09;10.50;99.90
29207;DHT22;16247;50.840;4.382;2022-12-29T03:23:36;10.50;99.90
29207;DHT22;16247;50.840;4.382;2022-12-29T03:26:08;10.50;99.90
29207;DHT22;16247;50.840;4.382;2022-12-29T03:28:47;10.50;99.90
29207;DHT22;16247;50.840;4.382;2022-12-29T03:31:17;10.50;99.90
29207;DHT22;16247;50.840;4.382;2022-12-29T03:33:45;10.60;99.90
29207;DHT22;16247;50.840;4.382;2022-12-29T03:36:19;10.70;99.90
29207;DHT22;16247;50.840;4.382;2022-12-29T03:38:59;10.80;99.90
29207;DHT22;16247;50.840;4.382;2022-12-29T03:41:30;10.90;99.90
29207;DHT22;16247;50.840;4.382;2022-12-29T03:43:55;11.10;99.90
29207;DHT22;16247;50.840;4.382;2022-12-29T03:46:21;11.00;99.90
29207;DHT22;16247;50.840;4.382;2022-12-29T03:48:47;11.00;99.90
29207;DHT22;16247;50.840;4.382;2022-12-29T03:51:13;10.90;99.90
29207;DHT22;16247;50.840;4.382;2022-12-29T03:53:39;10.90;99.90
29207;DHT22;16247;50.840;4.382;2022-12-29T03:56:06;11.10;99.90
29207;DHT22;16247;50.840;4.382;2022-12-29T03:58:32;11.10;99.90
29207;DHT22;16247;50.840;4.382;2022-12-29T04:00:58;11.00;99.90
29207;DHT22;16247;50.840;4.382;2022-12-29T04:03:24;11.00;99.90
29207;DHT22;16247;50.840;4.382;2022-12-29T04:05:50;11.00;99.90
29207;DHT22;16247;50.840;4.382;2022-12-29T04:08:16;11.10;99.90
29207;DHT22;16247;50.840;4.382;2022-12-29T04:10:42;11.10;99.90
29207;DHT22;16247;50.840;4.382;2022-12-29T04:13:08;11.10;99.90
29207;DHT22;16247;50.840;4.382;2022-12-29T04:15:34;10.90;99.90
29207;DHT22;16247;50.840;4.382;2022-12-29T04:18:00;10.90;99.90
29207;DHT22;16247;50.840;4.382;2022-12-29T04:20:26;11.00;99.90
29207;DHT22;16247;50.840;4.382;2022-12-29T04:23:12;10.90;99.90
29207;DHT22;16247;50.840;4.382;2022-12-29T04:25:38;10.90;99.90
29207;DHT22;16247;50.840;4.382;2022-12-29T04:28:03;11.10;99.90
29207;DHT22;16247;50.840;4.382;2022-12-29T04:30:31;10.90;99.90
29207;DHT22;16247;50.840;4.382;2022-12-29T04:32:58;11.00;99.90
29207;DHT22;16247;50.840;4.382;2022-12-29T04:35:23;11.20;99.90
29207;DHT22;16247;50.840;4.382;2022-12-29T04:37:49;11.10;99.90
29207;DHT22;16247;50.840;4.382;2022-12-29T04:40:14;11.00;99.90
29207;DHT22;16247;50.840;4.382;2022-12-29T04:42:41;10.90;99.90
29207;DHT22;16247;50.840;4.382;2022-12-29T04:45:10;11.10;99.90
29207;DHT22;16247;50.840;4.382;2022-12-29T04:47:36;11.00;99.90
29207;DHT22;16247;50.840;4.382;2022-12-29T04:50:03;11.10;99.90
29207;DHT22;16247;50.840;4.382;2022-12-29T04:52:29;11.00;99.90
29207;DHT22;16247;50.840;4.382;2022-12-29T04:54:55;11.00;99.90
29207;DHT22;16247;50.840;4.382;2022-12-29T04:57:20;11.00;99.90
29207;DHT22;16247;50.840;4.382;2022-12-29T04:59:46;11.00;99.90
29207;DHT22;16247;50.840;4.382;2022-12-29T05:02:12;11.10;99.90
29207;DHT22;16247;50.840;4.382;2022-12-29T05:04:37;11.10;99.90
29207;DHT22;16247;50.840;4.382;2022-12-29T05:07:03;11.10;99.90
29207;DHT22;16247;50.840;4.382;2022-12-29T05:09:28;11.20;99.90
29207;DHT22;16247;50.840;4.382;2022-12-29T05:11:55;11.10;99.90
29207;DHT22;16247;50.840;4.382;2022-12-29T05:14:21;11.30;99.90
29207;DHT22;16247;50.840;4.382;2022-12-29T05:16:47;11.20;99.90
29207;DHT22;16247;50.840;4.382;2022-12-29T05:19:13;11.20;99.90
29207;DHT22;16247;50.840;4.382;2022-12-29T05:21:38;11.50;99.90
29207;DHT22;16247;50.840;4.382;2022-12-29T05:24:04;11.30;99.90
29207;DHT22;16247;50.840;4.382;2022-12-29T05:26:30;11.30;99.90
29207;DHT22;16247;50.840;4.382;2022-12-29T05:28:55;11.40;99.90
29207;DHT22;16247;50.840;4.382;2022-12-29T05:31:21;11.30;99.90
29207;DHT22;16247;50.840;4.382;2022-12-29T05:33:47;11.30;99.90
29207;DHT22;16247;50.840;4.382;2022-12-29T05:36:12;11.50;99.90
29207;DHT22;16247;50.840;4.382;2022-12-29T05:38:40;11.30;99.90
29207;DHT22;16247;50.840;4.382;2022-12-29T05:41:09;11.50;99.90
29207;DHT22;16247;50.840;4.382;2022-12-29T05:43:35;11.30;99.90
29207;DHT22;16247;50.840;4.382;2022-12-29T05:46:00;11.30;99.90
29207;DHT22;16247;50.840;4.382;2022-12-29T05:48:31;11.40;99.90
29207;DHT22;16247;50.840;4.382;2022-12-29T05:50:57;11.40;99.90
29207;DHT22;16247;50.840;4.382;2022-12-29T05:53:50;11.50;99.90
29207;DHT22;16247;50.840;4.382;2022-12-29T05:56:16;11.40;99.90
29207;DHT22;16247;50.840;4.382;2022-12-29T05:58:42;11.50;99.90
29207;DHT22;16247;50.840;4.382;2022-12-29T06:04:15;11.50;99.90
29207;DHT22;16247;50.840;4.382;2022-12-29T06:06:55;11.50;99.90
29207;DHT22;16247;50.840;4.382;2022-12-29T06:09:27;11.50;99.90
29207;DHT22;16247;50.840;4.382;2022-12-29T06:11:58;11.50;99.90
29207;DHT22;16247;50.840;4.382;2022-12-29T06:14:24;11.40;99.90
29207;DHT22;16247;50.840;4.382;2022-12-29T06:16:50;11.30;99.90
29207;DHT22;16247;50.840;4.382;2022-12-29T06:19:15;11.40;99.90
29207;DHT22;16247;50.840;4.382;2022-12-29T06:21:41;11.40;99.90
29207;DHT22;16247;50.840;4.382;2022-12-29T06:24:06;11.20;99.90
29207;DHT22;16247;50.840;4.382;2022-12-29T06:26:32;11.20;99.90
29207;DHT22;16247;50.840;4.382;2022-12-29T06:28:59;11.30;99.90
29207;DHT22;16247;50.840;4.382;2022-12-29T06:31:25;11.10;99.90
29207;DHT22;16247;50.840;4.382;2022-12-29T06:33:50;11.20;99.90
29207;DHT22;16247;50.840;4.382;2022-12-29T06:36:16;11.40;99.90
29207;DHT22;16247;50.840;4.382;2022-12-29T06:38:42;11.10;99.90
29207;DHT22;16247;50.840;4.382;2022-12-29T06:41:07;11.40;99.90
29207;DHT22;16247;50.840;4.382;2022-12-29T06:43:33;11.30;99.90
29207;DHT22;16247;50.840;4.382;2022-12-29T06:45:59;11.40;99.90
29207;DHT22;16247;50.840;4.382;2022-12-29T06:48:25;11.50;99.90
29207;DHT22;16247;50.840;4.382;2022-12-29T06:50:50;11.40;99.90
29207;DHT22;16247;50.840;4.382;2022-12-29T06:53:16;11.50;99.90
29207;DHT22;16247;50.840;4.382;2022-12-29T06:55:42;11.40;99.90
29207;DHT22;16247;50.840;4.382;2022-12-29T06:58:08;11.40;99.90
29207;DHT22;16247;50.840;4.382;2022-12-29T07:00:34;11.40;99.90
29207;DHT22;16247;50.840;4.382;2022-12-29T07:03:00;11.40;99.90
29207;DHT22;16247;50.840;4.382;2022-12-29T07:05:26;11.50;99.90
29207;DHT22;16247;50.840;4.382;2022-12-29T07:07:56;11.40;99.90
29207;DHT22;16247;50.840;4.382;2022-12-29T07:10:22;11.50;99.90
29207;DHT22;16247;50.840;4.382;2022-12-29T07:12:47;11.50;99.90
29207;DHT22;16247;50.840;4.382;2022-12-29T07:15:14;11.60;99.90
29207;DHT22;16247;50.840;4.382;2022-12-29T07:17:41;11.50;99.90
29207;DHT22;16247;50.840;4.382;2022-12-29T07:20:07;11.60;99.90
29207;DHT22;16247;50.840;4.382;2022-12-29T07:22:33;11.40;99.90
29207;DHT22;16247;50.840;4.382;2022-12-29T07:24:59;11.30;99.90
29207;DHT22;16247;50.840;4.382;2022-12-29T07:27:26;11.50;99.90
29207;DHT22;16247;50.840;4.382;2022-12-29T07:29:55;11.40;99.90
29207;DHT22;16247;50.840;4.382;2022-12-29T07:32:21;11.50;99.90
29207;DHT22;16247;50.840;4.382;2022-12-29T07:34:47;11.50;99.90
29207;DHT22;16247;50.840;4.382;2022-12-29T07:37:15;11.40;99.90
29207;DHT22;16247;50.840;4.382;2022-12-29T07:39:42;11.30;99.90
29207;DHT22;16247;50.840;4.382;2022-12-29T07:42:09;11.40;99.90
29207;DHT22;16247;50.840;4.382;2022-12-29T07:44:35;11.30;99.90
29207;DHT22;16247;50.840;4.382;2022-12-29T07:47:02;11.30;99.90
29207;DHT22;16247;50.840;4.382;2022-12-29T07:49:28;11.40;99.90
29207;DHT22;16247;50.840;4.382;2022-12-29T07:51:53;11.40;99.90
29207;DHT22;16247;50.840;4.382;2022-12-29T07:54:19;11.40;99.90
29207;DHT22;16247;50.840;4.382;2022-12-29T07:56:45;11.50;99.90
29207;DHT22;16247;50.840;4.382;2022-12-29T07:59:11;11.40;99.90
29207;DHT22;16247;50.840;4.382;2022-12-29T08:01:39;11.50;99.90
29207;DHT22;16247;50.840;4.382;2022-12-29T08:04:05;11.40;99.90
29207;DHT22;16247;50.840;4.382;2022-12-29T08:06:31;11.40;99.90
29207;DHT22;16247;50.840;4.382;2022-12-29T08:08:57;11.40;99.90
29207;DHT22;16247;50.840;4.382;2022-12-29T08:11:23;11.50;99.90
29207;DHT22;16247;50.840;4.382;2022-12-29T08:13:50;11.40;99.90
29207;DHT22;16247;50.840;4.382;2022-12-29T08:16:24;11.50;99.90
29207;DHT22;16247;50.840;4.382;2022-12-29T08:18:50;11.40;99.90
29207;DHT22;16247;50.840;4.382;2022-12-29T08:21:16;11.40;99.90
29207;DHT22;16247;50.840;4.382;2022-12-29T08:23:41;11.20;99.90
29207;DHT22;16247;50.840;4.382;2022-12-29T08:26:07;11.30;99.90
29207;DHT22;16247;50.840;4.382;2022-12-29T08:28:33;11.20;99.90
29207;DHT22;16247;50.840;4.382;2022-12-29T08:31:00;11.50;99.90
29207;DHT22;16247;50.840;4.382;2022-12-29T08:33:28;11.40;99.90
29207;DHT22;16247;50.840;4.382;2022-12-29T08:36:04;11.30;99.90
29207;DHT22;16247;50.840;4.382;2022-12-29T08:38:30;11.30;99.90
29207;DHT22;16247;50.840;4.382;2022-12-29T08:40:56;11.30;99.90
29207;DHT22;16247;50.840;4.382;2022-12-29T08:43:22;11.40;99.90
29207;DHT22;16247;50.840;4.382;2022-12-29T08:45:48;11.50;99.90
29207;DHT22;16247;50.840;4.382;2022-12-29T08:48:16;11.40;99.90
29207;DHT22;16247;50.840;4.382;2022-12-29T08:50:45;11.40;99.90
29207;DHT22;16247;50.840;4.382;2022-12-29T08:53:11;11.30;99.90
29207;DHT22;16247;50.840;4.382;2022-12-29T08:55:37;11.50;99.90
29207;DHT22;16247;50.840;4.382;2022-12-29T08:58:04;11.40;99.90
29207;DHT22;16247;50.840;4.382;2022-12-29T09:00:29;11.20;99.90
29207;DHT22;16247;50.840;4.382;2022-12-29T09:02:56;11.20;99.90
29207;DHT22;16247;50.840;4.382;2022-12-29T09:05:22;11.40;99.90
29207;DHT22;16247;50.840;4.382;2022-12-29T09:07:51;11.50;99.90
29207;DHT22;16247;50.840;4.382;2022-12-29T09:10:23;11.40;99.90
29207;DHT22;16247;50.840;4.382;2022-12-29T09:12:51;11.40;99.90
29207;DHT22;16247;50.840;4.382;2022-12-29T09:15:17;11.20;99.90
29207;DHT22;16247;50.840;4.382;2022-12-29T09:17:43;11.20;99.90
29207;DHT22;16247;50.840;4.382;2022-12-29T09:20:14;11.30;99.90
29207;DHT22;16247;50.840;4.382;2022-12-29T09:22:41;11.20;99.90
29207;DHT22;16247;50.840;4.382;2022-12-29T09:25:08;11.40;99.90
29207;DHT22;16247;50.840;4.382;2022-12-29T09:27:36;11.30;99.90
29207;DHT22;16247;50.840;4.382;2022-12-29T09:30:04;11.20;99.90
29207;DHT22;16247;50.840;4.382;2022-12-29T09:32:31;11.10;99.90
29207;DHT22;16247;50.840;4.382;2022-12-29T09:34:56;11.30;99.90
29207;DHT22;16247;50.840;4.382;2022-12-29T09:37:30;11.20;99.90
29207;DHT22;16247;50.840;4.382;2022-12-29T09:39:56;11.30;99.90
29207;DHT22;16247;50.840;4.382;2022-12-29T09:42:30;11.20;99.90
29207;DHT22;16247;50.840;4.382;2022-12-29T09:45:21;11.20;99.90
29207;DHT22;16247;50.840;4.382;2022-12-29T09:47:50;11.10;99.90
29207;DHT22;16247;50.840;4.382;2022-12-29T09:50:32;11.30;99.90
29207;DHT22;16247;50.840;4.382;2022-12-29T09:56:11;11.30;99.90
29207;DHT22;16247;50.840;4.382;2022-12-29T09:58:48;11.40;99.90
29207;DHT22;16247;50.840;4.382;2022-12-29T10:01:28;11.50;99.90
29207;DHT22;16247;50.840;4.382;2022-12-29T10:03:56;11.30;99.90
29207;DHT22;16247;50.840;4.382;2022-12-29T10:06:24;11.50;99.90
29207;DHT22;16247;50.840;4.382;2022-12-29T10:24:42;11.30;99.90
29207;DHT22;16247;50.840;4.382;2022-12-29T10:27:13;11.40;99.90
29207;DHT22;16247;50.840;4.382;2022-12-29T10:29:44;11.50;99.90
29207;DHT22;16247;50.840;4.382;2022-12-29T10:32:34;11.30;99.90
29207;DHT22;16247;50.840;4.382;2022-12-29T10:35:23;11.30;99.90
29207;DHT22;16247;50.840;4.382;2022-12-29T10:37:58;11.20;99.90
29207;DHT22;16247;50.840;4.382;2022-12-29T10:40:38;11.30;99.90
29207;DHT22;16247;50.840;4.382;2022-12-29T10:43:32;11.40;99.90
29207;DHT22;16247;50.840;4.382;2022-12-29T10:46:18;11.20;99.90
29207;DHT22;16247;50.840;4.382;2022-12-29T10:48:45;11.50;99.90
29207;DHT22;16247;50.840;4.382;2022-12-29T10:51:30;11.40;99.90
29207;DHT22;16247;50.840;4.382;2022-12-29T10:56:44;11.30;99.90
29207;DHT22;16247;50.840;4.382;2022-12-29T10:59:16;11.50;99.90
29207;DHT22;16247;50.840;4.382;2022-12-29T11:01:57;11.60;99.90
29207;DHT22;16247;50.840;4.382;2022-12-29T11:07:12;11.50;99.90
29207;DHT22;16247;50.840;4.382;2022-12-29T11:09:39;11.40;99.90
29207;DHT22;16247;50.840;4.382;2022-12-29T11:12:25;11.60;99.90
29207;DHT22;16247;50.840;4.382;2022-12-29T11:17:47;11.60;99.90
29207;DHT22;16247;50.840;4.382;2022-12-29T11:20:37;11.50;99.90
29207;DHT22;16247;50.840;4.382;2022-12-29T11:23:19;11.50;99.90
29207;DHT22;16247;50.840;4.382;2022-12-29T11:25:46;11.70;99.90
29207;DHT22;16247;50.840;4.382;2022-12-29T11:28:16;11.70;99.90
29207;DHT22;16247;50.840;4.382;2022-12-29T11:30:42;11.50;99.90
29207;DHT22;16247;50.840;4.382;2022-12-29T11:33:09;11.50;99.90
29207;DHT22;16247;50.840;4.382;2022-12-29T11:35:41;11.60;99.90
29207;DHT22;16247;50.840;4.382;2022-12-29T11:38:22;11.40;99.90
29207;DHT22;16247;50.840;4.382;2022-12-29T11:40:49;11.30;99.90
29207;DHT22;16247;50.840;4.382;2022-12-29T11:43:32;11.30;99.90
29207;DHT22;16247;50.840;4.382;2022-12-29T11:45:59;11.30;99.90
29207;DHT22;16247;50.840;4.382;2022-12-29T11:48:29;11.20;99.90
29207;DHT22;16247;50.840;4.382;2022-12-29T11:51:00;11.20;99.90
29207;DHT22;16247;50.840;4.382;2022-12-29T11:53:39;11.10;99.90
29207;DHT22;16247;50.840;4.382;2022-12-29T11:56:14;11.30;99.90
29207;DHT22;16247;50.840;4.382;2022-12-29T11:58:42;11.10;99.90
29207;DHT22;16247;50.840;4.382;2022-12-29T12:01:39;11.10;99.90
29207;DHT22;16247;50.840;4.382;2022-12-29T12:04:16;11.10;99.90
29207;DHT22;16247;50.840;4.382;2022-12-29T12:09:37;11.30;99.90
29207;DHT22;16247;50.840;4.382;2022-12-29T12:12:29;11.20;99.90
29207;DHT22;16247;50.840;4.382;2022-12-29T12:14:59;11.10;99.90
29207;DHT22;16247;50.840;4.382;2022-12-29T12:20:44;11.20;99.90
29207;DHT22;16247;50.840;4.382;2022-12-29T12:23:32;11.10;99.90
29207;DHT22;16247;50.840;4.382;2022-12-29T12:26:15;11.30;99.90
29207;DHT22;16247;50.840;4.382;2022-12-29T12:28:56;11.20;99.90
29207;DHT22;16247;50.840;4.382;2022-12-29T12:34:35;11.10;99.90
29207;DHT22;16247;50.840;4.382;2022-12-29T12:37:38;11.10;99.90
29207;DHT22;16247;50.840;4.382;2022-12-29T12:51:25;11.10;99.90
29207;DHT22;16247;50.840;4.382;2022-12-29T13:21:04;11.20;99.90
29207;DHT22;16247;50.840;4.382;2022-12-29T13:24:16;11.20;99.90
29207;DHT22;16247;50.840;4.382;2022-12-29T13:26:51;11.00;99.90
29207;DHT22;16247;50.840;4.382;2022-12-29T13:29:49;11.00;99.90
29207;DHT22;16247;50.840;4.382;2022-12-29T13:35:48;11.10;99.90
29207;DHT22;16247;50.840;4.382;2022-12-29T13:38:24;11.00;99.90
29207;DHT22;16247;50.840;4.382;2022-12-29T13:44:02;10.90;99.90
29207;DHT22;16247;50.840;4.382;2022-12-29T13:46:38;11.00;99.90
29207;DHT22;16247;50.840;4.382;2022-12-29T13:51:46;10.80;99.90
29207;DHT22;16247;50.840;4.382;2022-12-29T13:54:27;11.00;99.90
29207;DHT22;16247;50.840;4.382;2022-12-29T13:57:13;11.10;99.90
29207;DHT22;16247;50.840;4.382;2022-12-29T14:00:29;10.90;99.90
29207;DHT22;16247;50.840;4.382;2022-12-29T14:03:14;11.00;99.90
29207;DHT22;16247;50.840;4.382;2022-12-29T14:06:19;11.00;99.90
29207;DHT22;16247;50.840;4.382;2022-12-29T14:08:48;11.10;99.90
29207;DHT22;16247;50.840;4.382;2022-12-29T14:11:17;11.10;99.90
29207;DHT22;16247;50.840;4.382;2022-12-29T14:13:48;11.20;99.90
29207;DHT22;16247;50.840;4.382;2022-12-29T14:16:32;11.20;99.90
29207;DHT22;16247;50.840;4.382;2022-12-29T14:21:37;11.10;99.90
29207;DHT22;16247;50.840;4.382;2022-12-29T14:27:25;10.90;99.90
29207;DHT22;16247;50.840;4.382;2022-12-29T14:29:49;11.10;99.90
29207;DHT22;16247;50.840;4.382;2022-12-29T14:34:47;11.10;99.90
29207;DHT22;16247;50.840;4.382;2022-12-29T14:37:31;11.10;99.90
29207;DHT22;16247;50.840;4.382;2022-12-29T14:42:32;11.20;99.90
29207;DHT22;16247;50.840;4.382;2022-12-29T14:47:40;11.10;99.90
29207;DHT22;16247;50.840;4.382;2022-12-29T14:50:13;11.00;99.90
29207;DHT22;16247;50.840;4.382;2022-12-29T14:52:52;10.80;99.90
29207;DHT22;16247;50.840;4.382;2022-12-29T14:55:43;10.60;99.90
29207;DHT22;16247;50.840;4.382;2022-12-29T14:59:08;10.40;99.90
29207;DHT22;16247;50.840;4.382;2022-12-29T15:04:00;10.30;99.90
29207;DHT22;16247;50.840;4.382;2022-12-29T15:06:30;10.20;99.90
29207;DHT22;16247;50.840;4.382;2022-12-29T15:09:06;10.30;99.90
29207;DHT22;16247;50.840;4.382;2022-12-29T15:14:28;10.20;99.90
29207;DHT22;16247;50.840;4.382;2022-12-29T15:16:54;9.90;99.90
29207;DHT22;16247;50.840;4.382;2022-12-29T15:19:25;10.00;99.90
29207;DHT22;16247;50.840;4.382;2022-12-29T15:21:52;9.90;99.90
29207;DHT22;16247;50.840;4.382;2022-12-29T15:24:18;9.70;99.90
29207;DHT22;16247;50.840;4.382;2022-12-29T15:26:50;9.50;99.90
29207;DHT22;16247;50.840;4.382;2022-12-29T15:29:39;9.50;99.90
29207;DHT22;16247;50.840;4.382;2022-12-29T15:34:41;9.50;99.90
29207;DHT22;16247;50.840;4.382;2022-12-29T15:37:08;9.50;99.90
29207;DHT22;16247;50.840;4.382;2022-12-29T15:39:34;9.40;99.90
29207;DHT22;16247;50.840;4.382;2022-12-29T15:44:38;9.20;99.90
29207;DHT22;16247;50.840;4.382;2022-12-29T15:47:08;9.20;99.90
29207;DHT22;16247;50.840;4.382;2022-12-29T15:49:35;9.30;99.90
29207;DHT22;16247;50.840;4.382;2022-12-29T15:52:06;9.40;99.90
29207;DHT22;16247;50.840;4.382;2022-12-29T15:54:33;9.20;99.90
29207;DHT22;16247;50.840;4.382;2022-12-29T15:56:59;9.40;99.90
29207;DHT22;16247;50.840;4.382;2022-12-29T15:59:30;9.20;99.90
29207;DHT22;16247;50.840;4.382;2022-12-29T16:01:58;9.50;99.90
29207;DHT22;16247;50.840;4.382;2022-12-29T16:04:30;9.50;99.90
29207;DHT22;16247;50.840;4.382;2022-12-29T16:07:20;9.30;99.90
29207;DHT22;16247;50.840;4.382;2022-12-29T16:09:47;9.30;99.90
29207;DHT22;16247;50.840;4.382;2022-12-29T16:12:20;9.30;99.90
29207;DHT22;16247;50.840;4.382;2022-12-29T16:14:50;9.30;99.90
29207;DHT22;16247;50.840;4.382;2022-12-29T16:17:21;9.20;99.90
29207;DHT22;16247;50.840;4.382;2022-12-29T16:19:54;9.40;99.90
29207;DHT22;16247;50.840;4.382;2022-12-29T16:22:33;9.40;99.90
29207;DHT22;16247;50.840;4.382;2022-12-29T16:25:09;9.20;99.90
29207;DHT22;16247;50.840;4.382;2022-12-29T16:27:41;9.10;99.90
29207;DHT22;16247;50.840;4.382;2022-12-29T16:30:21;9.20;99.90
29207;DHT22;16247;50.840;4.382;2022-12-29T16:32:50;9.10;99.90
29207;DHT22;16247;50.840;4.382;2022-12-29T16:35:21;9.30;99.90
29207;DHT22;16247;50.840;4.382;2022-12-29T16:37:49;9.10;99.90
29207;DHT22;16247;50.840;4.382;2022-12-29T16:40:32;9.10;99.90
29207;DHT22;16247;50.840;4.382;2022-12-29T16:43:02;9.20;99.90
29207;DHT22;16247;50.840;4.382;2022-12-29T16:50:40;9.50;99.90
29207;DHT22;16247;50.840;4.382;2022-12-29T16:53:34;9.50;99.90
29207;DHT22;16247;50.840;4.382;2022-12-29T16:56:12;9.40;99.90
29207;DHT22;16247;50.840;4.382;2022-12-29T16:58:41;9.50;99.90
29207;DHT22;16247;50.840;4.382;2022-12-29T17:01:07;9.40;99.90
29207;DHT22;16247;50.840;4.382;2022-12-29T17:03:43;9.30;99.90
29207;DHT22;16247;50.840;4.382;2022-12-29T17:06:15;9.50;99.90
29207;DHT22;16247;50.840;4.382;2022-12-29T17:08:43;9.50;99.90
29207;DHT22;16247;50.840;4.382;2022-12-29T17:11:26;9.40;99.90
29207;DHT22;16247;50.840;4.382;2022-12-29T17:14:43;9.40;99.90
29207;DHT22;16247;50.840;4.382;2022-12-29T17:17:19;9.20;99.90
29207;DHT22;16247;50.840;4.382;2022-12-29T17:19:59;9.20;99.90
29207;DHT22;16247;50.840;4.382;2022-12-29T17:22:28;9.30;99.90
29207;DHT22;16247;50.840;4.382;2022-12-29T17:24:56;9.20;99.90
29207;DHT22;16247;50.840;4.382;2022-12-29T17:27:51;9.30;99.90
29207;DHT22;16247;50.840;4.382;2022-12-29T17:30:23;9.30;99.90
29207;DHT22;16247;50.840;4.382;2022-12-29T17:32:52;9.40;99.90
29207;DHT22;16247;50.840;4.382;2022-12-29T17:35:20;9.20;99.90
29207;DHT22;16247;50.840;4.382;2022-12-29T17:37:46;9.20;99.90
29207;DHT22;16247;50.840;4.382;2022-12-29T17:40:23;9.40;99.90
29207;DHT22;16247;50.840;4.382;2022-12-29T17:42:52;9.30;99.90
29207;DHT22;16247;50.840;4.382;2022-12-29T17:45:30;9.40;99.90
29207;DHT22;16247;50.840;4.382;2022-12-29T17:47:57;9.50;99.90
29207;DHT22;16247;50.840;4.382;2022-12-29T17:50:28;9.50;99.90
29207;DHT22;16247;50.840;4.382;2022-12-29T17:52:58;9.30;99.90
29207;DHT22;16247;50.840;4.382;2022-12-29T17:55:24;9.50;99.90
29207;DHT22;16247;50.840;4.382;2022-12-29T17:57:51;9.50;99.90
29207;DHT22;16247;50.840;4.382;2022-12-29T18:00:19;9.30;99.90
29207;DHT22;16247;50.840;4.382;2022-12-29T18:02:47;9.40;99.90
29207;DHT22;16247;50.840;4.382;2022-12-29T18:05:27;9.60;99.90
29207;DHT22;16247;50.840;4.382;2022-12-29T18:07:55;9.50;99.90
29207;DHT22;16247;50.840;4.382;2022-12-29T18:10:24;9.40;99.90
29207;DHT22;16247;50.840;4.382;2022-12-29T18:12:59;9.40;99.90
29207;DHT22;16247;50.840;4.382;2022-12-29T18:15:28;9.20;99.90
29207;DHT22;16247;50.840;4.382;2022-12-29T18:18:00;9.00;99.90
29207;DHT22;16247;50.840;4.382;2022-12-29T18:20:29;9.20;99.90
29207;DHT22;16247;50.840;4.382;2022-12-29T18:22:56;9.20;99.90
29207;DHT22;16247;50.840;4.382;2022-12-29T18:25:39;9.20;99.90